createdAt,value
2019-04-26T00:01:34.006Z,0.47
2019-04-26T00:05:39.263Z,0.60
2019-04-26T00:09:43.068Z,0.40
2019-04-26T00:13:54.119Z,0.45
2019-04-26T00:17:59.338Z,0.50
2019-04-26T00:22:02.900Z,0.30
2019-04-26T00:26:07.072Z,0.50
2019-04-26T00:30:12.105Z,0.55
2019-04-26T00:34:17.486Z,0.37
2019-04-26T00:38:22.318Z,0.50
2019-04-26T00:42:26.492Z,0.25
2019-04-26T00:46:32.028Z,0.30
2019-04-26T00:50:36.485Z,0.57
2019-04-26T00:54:40.923Z,0.30
2019-04-26T00:58:44.497Z,0.20
2019-04-26T01:02:53.228Z,0.60
2019-04-26T01:06:58.365Z,0.57
2019-04-26T01:11:01.845Z,0.60
2019-04-26T01:15:07.016Z,0.70
2019-04-26T01:19:11.747Z,0.50
2019-04-26T01:23:18.783Z,0.40
2019-04-26T01:27:25.775Z,0.45
2019-04-26T01:31:31.411Z,0.65
2019-04-26T01:35:34.918Z,0.50
2019-04-26T01:39:41.183Z,0.75
2019-04-26T01:44:04.287Z,0.60
2019-04-26T01:48:12.532Z,0.50
2019-04-26T01:52:16.285Z,0.50
2019-04-26T01:56:23.461Z,0.35
2019-04-26T02:00:31.789Z,0.53
2019-04-26T02:04:40.237Z,0.65
2019-04-26T02:08:43.873Z,0.47
2019-04-26T02:12:49.152Z,0.42
2019-04-26T02:16:53.168Z,0.30
2019-04-26T02:21:06.259Z,0.80
2019-04-26T02:25:10.123Z,0.60
2019-04-26T02:29:19.214Z,0.55
2019-04-26T02:33:23.157Z,0.70
2019-04-26T02:37:28.879Z,0.50
2019-04-26T02:41:35.315Z,0.70
2019-04-26T02:45:59.742Z,0.68
2019-04-26T02:50:07.380Z,0.50
2019-04-26T02:54:13.959Z,0.60
2019-04-26T02:58:20.485Z,0.50
2019-04-26T03:02:24.783Z,1.20
2019-04-26T03:06:34.269Z,0.55
2019-04-26T03:10:40.590Z,0.82
2019-04-26T03:14:51.763Z,0.78
2019-04-26T03:23:45.943Z,0.50
2019-04-26T03:28:08.277Z,0.60
2019-04-26T03:32:17.477Z,0.50
2019-04-26T03:36:44.326Z,0.53
2019-04-26T03:41:16.820Z,0.75
2019-04-26T03:45:25.897Z,0.62
2019-04-26T03:49:42.077Z,0.55
2019-04-26T03:53:52.863Z,0.98
2019-04-26T03:58:10.310Z,0.55
2019-04-26T04:02:24.189Z,0.95
2019-04-26T04:06:31.272Z,0.60
2019-04-26T04:10:50.077Z,0.50
2019-04-26T04:15:06.483Z,0.55
2019-04-26T04:19:54.987Z,0.50
2019-04-26T04:24:01.526Z,0.80
2019-04-26T04:28:30.709Z,0.70
2019-04-26T04:33:00.125Z,0.82
2019-04-26T04:37:06.165Z,0.50
2019-04-26T04:41:23.141Z,0.50
2019-04-26T04:45:55.530Z,0.50
2019-04-26T04:50:10.074Z,0.65
2019-04-26T04:54:33.268Z,0.78
2019-04-26T04:58:55.017Z,0.90
2019-04-26T05:03:06.403Z,0.80
2019-04-26T05:07:26.551Z,0.60
2019-04-26T05:11:36.246Z,0.70
2019-04-26T05:15:50.699Z,0.57
2019-04-26T05:20:24.762Z,0.93
2019-04-26T05:24:49.151Z,0.70
2019-04-26T05:29:23.119Z,0.50
2019-04-26T05:33:32.485Z,0.62
2019-04-26T05:37:55.188Z,0.90
2019-04-26T05:42:24.366Z,0.60
2019-04-26T05:46:59.516Z,0.65
2019-04-26T05:51:16.546Z,0.60
2019-04-26T05:55:39.855Z,0.80
2019-04-26T06:00:27.594Z,0.60
2019-04-26T06:04:45.055Z,0.55
2019-04-26T06:09:28.027Z,0.72
2019-04-26T06:14:24.605Z,0.75
2019-04-26T06:18:57.896Z,0.90
2019-04-26T06:23:25.918Z,1.00
2019-04-26T06:27:56.999Z,0.77
2019-04-26T06:32:15.954Z,0.80
2019-04-26T06:36:24.244Z,0.80
2019-04-26T06:40:45.463Z,0.70
2019-04-26T06:45:11.910Z,1.75
2019-04-26T06:49:35.152Z,0.80
2019-04-26T06:53:47.664Z,0.45
2019-04-26T06:58:02.757Z,0.70
2019-04-26T07:02:21.106Z,0.90
2019-04-26T07:06:35.234Z,0.50
2019-04-26T07:11:06.941Z,0.57
2019-04-26T07:15:32.930Z,1.30
2019-04-26T07:20:06.147Z,0.87
2019-04-26T07:24:38.835Z,0.68
2019-04-26T07:29:06.948Z,0.80
2019-04-26T07:33:33.095Z,1.70
2019-04-26T07:38:04.803Z,0.60
2019-04-26T07:42:45.164Z,0.72
2019-04-26T07:47:18.782Z,1.00
2019-04-26T07:51:27.908Z,0.62
2019-04-26T07:55:40.281Z,0.83
2019-04-26T08:00:13.062Z,0.70
2019-04-26T08:04:20.768Z,1.07
2019-04-26T08:08:27.490Z,0.85
2019-04-26T08:12:33.921Z,0.80
2019-04-26T08:17:05.258Z,0.75
2019-04-26T08:21:17.372Z,1.15
2019-04-26T08:25:24.068Z,0.70
2019-04-26T08:29:33.338Z,0.65
2019-04-26T08:33:48.223Z,0.47
2019-04-26T08:37:49.870Z,0.53
2019-04-26T08:41:55.600Z,0.45
2019-04-26T08:46:03.786Z,0.80
2019-04-26T08:50:16.268Z,0.60
2019-04-26T08:54:24.057Z,0.50
2019-04-26T08:58:29.628Z,0.88
2019-04-26T09:02:40.966Z,0.70
2019-04-26T09:07:07.255Z,0.72
2019-04-26T09:11:25.602Z,0.50
2019-04-26T09:15:40.700Z,0.80
2019-04-26T09:19:44.340Z,0.80
2019-04-26T09:24:01.465Z,0.40
2019-04-26T09:28:06.944Z,0.93
2019-04-26T09:32:12.068Z,0.40
2019-04-26T09:36:18.057Z,0.60
2019-04-26T09:40:22.712Z,0.75
2019-04-26T09:44:37.683Z,1.20
2019-04-26T09:48:47.047Z,0.62
2019-04-26T09:52:54.719Z,0.90
2019-04-26T09:56:58.248Z,0.82
2019-04-26T10:01:01.913Z,0.80
2019-04-26T10:05:11.984Z,1.02
2019-04-26T10:09:17.382Z,0.93
2019-04-26T10:13:32.523Z,0.90
2019-04-26T10:17:36.397Z,0.93
2019-04-26T10:21:39.956Z,1.03
2019-04-26T10:25:47.387Z,1.15
2019-04-26T10:29:49.173Z,0.90
2019-04-26T10:33:53.039Z,1.12
2019-04-26T10:37:56.836Z,0.70
2019-04-26T10:42:00.400Z,0.80
2019-04-26T10:46:05.079Z,1.25
2019-04-26T10:50:10.416Z,1.10
2019-04-26T10:54:15.566Z,1.05
2019-04-26T10:58:23.435Z,1.30
2019-04-26T11:02:26.998Z,1.22
2019-04-26T11:06:30.487Z,1.42
2019-04-26T11:10:47.699Z,1.20
2019-04-26T11:14:40.748Z,0.85
2019-04-26T11:18:44.231Z,0.98
2019-04-26T11:22:48.041Z,1.07
2019-04-26T11:26:51.521Z,0.70
2019-04-26T11:30:57.366Z,1.40
2019-04-26T11:35:00.748Z,0.80
2019-04-26T11:39:07.462Z,1.05
2019-04-26T11:43:11.046Z,0.65
2019-04-26T11:47:14.839Z,0.85
2019-04-26T11:51:18.433Z,0.70
2019-04-26T11:55:25.349Z,0.90
2019-04-26T11:59:30.492Z,1.17
2019-04-26T12:03:33.345Z,0.93
2019-04-26T12:07:38.467Z,1.20
2019-04-26T12:11:49.543Z,1.10
2019-04-26T12:15:48.386Z,1.22
2019-04-26T12:19:53.331Z,1.20
2019-04-26T12:23:58.837Z,1.17
2019-04-26T12:28:06.145Z,1.40
2019-04-26T12:32:08.404Z,1.10
2019-04-26T12:36:14.403Z,0.90
2019-04-26T12:40:19.537Z,1.17
2019-04-26T12:44:25.530Z,1.32
2019-04-26T12:48:29.361Z,1.50
2019-04-26T12:52:33.488Z,1.60
2019-04-26T12:56:37.044Z,1.85
2019-04-26T13:00:53.340Z,1.85
2019-04-26T13:04:46.356Z,1.90
2019-04-26T13:08:51.523Z,2.15
2019-04-26T13:13:09.030Z,1.50
2019-04-26T13:17:35.748Z,1.77
2019-04-26T13:21:38.884Z,1.62
2019-04-26T13:25:42.443Z,1.92
2019-04-26T13:29:48.205Z,2.12
2019-04-26T13:33:51.227Z,2.02
2019-04-26T13:37:54.725Z,1.47
2019-04-26T13:42:04.419Z,2.62
2019-04-26T13:46:10.965Z,1.85
2019-04-26T13:50:16.074Z,2.40
2019-04-26T13:54:21.102Z,1.65
2019-04-26T13:58:25.549Z,1.85
2019-04-26T14:02:29.556Z,2.10
2019-04-26T14:06:33.316Z,2.20
2019-04-26T14:10:36.851Z,2.00
2019-04-26T14:14:40.627Z,2.60
2019-04-26T14:18:44.242Z,2.85
2019-04-26T14:22:52.360Z,2.95
2019-04-26T14:26:57.490Z,3.20
2019-04-26T14:31:01.200Z,2.62
2019-04-26T14:35:05.842Z,3.35
2019-04-26T14:39:10.644Z,2.15
2019-04-26T14:43:18.244Z,2.60
2019-04-26T14:47:20.854Z,2.12
2019-04-26T14:51:24.359Z,2.12
2019-04-26T14:55:27.844Z,2.20
2019-04-26T14:59:46.917Z,2.30
2019-04-26T15:04:07.800Z,2.52
2019-04-26T15:08:13.203Z,2.35
2019-04-26T15:12:16.831Z,2.62
2019-04-26T15:16:22.781Z,1.98
2019-04-26T15:20:26.313Z,1.75
2019-04-26T15:24:30.067Z,2.65
2019-04-26T15:28:35.003Z,2.10
2019-04-26T15:32:38.497Z,1.30
2019-04-26T15:36:43.523Z,2.33
2019-04-26T15:41:11.448Z,1.90
2019-04-26T15:45:27.141Z,1.95
2019-04-26T15:49:36.569Z,2.55
2019-04-26T15:53:37.496Z,2.30
2019-04-26T15:57:41.010Z,2.62
2019-04-26T16:01:47.655Z,3.05
2019-04-26T16:05:50.223Z,4.80
2019-04-26T16:09:57.342Z,4.15
2019-04-26T16:13:58.927Z,4.28
2019-04-26T16:18:04.171Z,4.83
2019-04-26T16:22:07.764Z,4.28
2019-04-26T16:26:12.941Z,5.30
2019-04-26T16:30:24.260Z,3.75
2019-04-26T16:34:29.812Z,3.30
2019-04-26T16:38:37.668Z,3.98
2019-04-26T16:42:41.145Z,4.50
2019-04-26T16:46:44.942Z,4.35
2019-04-26T16:50:48.434Z,3.72
2019-04-26T16:54:53.072Z,3.40
2019-04-26T16:58:56.574Z,3.22
2019-04-26T17:03:06.444Z,3.25
2019-04-26T17:07:05.559Z,2.83
2019-04-26T17:11:14.068Z,3.15
2019-04-26T17:15:21.049Z,2.77
2019-04-26T17:19:24.621Z,2.22
2019-04-26T17:23:38.894Z,2.17
2019-04-26T17:27:44.577Z,2.27
2019-04-26T17:31:47.921Z,1.70
2019-04-26T17:35:51.696Z,1.62
2019-04-26T17:39:55.535Z,2.02
2019-04-26T17:44:07.982Z,1.42
2019-04-26T17:48:06.702Z,1.32
2019-04-26T17:52:11.646Z,1.20
2019-04-26T17:56:15.552Z,1.50
2019-04-26T18:00:26.766Z,1.60
2019-04-26T18:04:33.030Z,1.37
2019-04-26T18:08:38.870Z,1.07
2019-04-26T18:12:40.675Z,1.05
2019-04-26T18:16:43.849Z,1.07
2019-04-26T18:20:49.044Z,1.02
2019-04-26T18:24:52.581Z,1.42
2019-04-26T18:28:56.202Z,1.20
2019-04-26T18:32:59.848Z,1.45
2019-04-26T18:37:06.983Z,1.70
2019-04-26T18:41:09.158Z,2.10
2019-04-26T18:45:13.905Z,1.70
2019-04-26T18:49:22.511Z,1.75
2019-04-26T18:53:30.580Z,2.17
2019-04-26T18:57:33.528Z,3.15
2019-04-26T19:01:40.893Z,2.83
2019-04-26T19:05:43.154Z,2.67
2019-04-26T19:09:58.888Z,2.83
2019-04-26T19:13:56.474Z,2.72
2019-04-26T19:18:05.497Z,1.92
2019-04-26T19:22:15.549Z,3.10
2019-04-26T19:26:15.130Z,2.70
2019-04-26T19:30:21.474Z,3.60
2019-04-26T19:34:26.111Z,3.17
2019-04-26T19:38:30.221Z,2.65
2019-04-26T19:42:33.699Z,3.72
2019-04-26T19:46:44.263Z,4.17
2019-04-26T19:50:55.352Z,3.73
2019-04-26T19:55:11.435Z,4.87
2019-04-26T19:59:15.089Z,4.35
2019-04-26T20:03:19.395Z,3.83
2019-04-26T20:07:24.220Z,4.67
2019-04-26T20:11:28.123Z,4.17
2019-04-26T20:15:31.951Z,4.12
2019-04-26T20:19:37.499Z,3.75
2019-04-26T20:23:43.719Z,3.87
2019-04-26T20:27:46.437Z,4.72
2019-04-26T20:31:54.314Z,6.05
2019-04-26T20:36:03.334Z,4.50
2019-04-26T20:40:18.819Z,4.03
2019-04-26T20:44:10.230Z,4.35
2019-04-26T20:48:14.312Z,5.37
2019-04-26T20:52:23.183Z,4.20
2019-04-26T20:56:24.336Z,5.08
2019-04-26T21:00:27.961Z,5.25
2019-04-26T21:04:38.050Z,6.67
2019-04-26T21:08:36.692Z,5.15
2019-04-26T21:12:41.794Z,6.15
2019-04-26T21:16:49.554Z,5.72
2019-04-26T21:20:52.344Z,5.42
2019-04-26T21:25:00.260Z,4.70
2019-04-26T21:29:20.482Z,5.78
2019-04-26T21:33:32.701Z,6.47
2019-04-26T21:37:35.938Z,5.97
2019-04-26T21:41:46.747Z,6.55
2019-04-26T21:45:49.187Z,5.92
2019-04-26T21:49:58.808Z,5.87
2019-04-26T21:53:58.193Z,5.90
2019-04-26T21:58:02.716Z,5.87
2019-04-26T22:02:08.795Z,5.85
2019-04-26T22:06:12.271Z,6.67
2019-04-26T22:10:17.398Z,5.70
2019-04-26T22:14:23.593Z,6.05
2019-04-26T22:18:28.759Z,6.58
2019-04-26T22:22:37.532Z,6.62
2019-04-26T22:26:46.769Z,6.65
2019-04-26T22:30:47.375Z,7.08
2019-04-26T22:34:50.865Z,5.45
2019-04-26T22:38:55.629Z,5.70
2019-04-26T22:43:10.847Z,6.78
2019-04-26T22:47:17.088Z,6.05
2019-04-26T22:51:20.636Z,5.35
2019-04-26T22:55:27.435Z,5.95
2019-04-26T22:59:29.616Z,6.50
2019-04-26T23:03:36.562Z,6.70
2019-04-26T23:07:39.340Z,6.62
2019-04-26T23:11:46.678Z,6.95
2019-04-26T23:16:00.565Z,6.62
2019-04-26T23:20:07.825Z,5.85
2019-04-26T23:24:17.562Z,7.20
2019-04-26T23:28:16.897Z,7.47
2019-04-26T23:32:20.471Z,7.20
2019-04-26T23:36:24.199Z,6.75
2019-04-26T23:40:28.988Z,6.40
2019-04-26T23:44:33.127Z,6.60
2019-04-26T23:48:36.681Z,7.03
2019-04-26T23:52:40.160Z,6.55
2019-04-26T23:56:43.857Z,6.35
